Time;durP1;ratioP1;P1;durP2;ratioP2;P2;SDS_P1;SDS_P2;PMS_P1;PMS_P2;Temp;Humidity;BMP_temperature;BMP_pressure;BME280_temperature;BME280_humidity;BME280_pressure;Samples;Min_cycle;Max_cycle;Signal;HPM_P1;HPM_P2
2022/04/12 00:01:37;;;;;;;1.42;1.10;;;;;;;;;;5000079;28;20377;-62
2022/04/12 00:04:03;;;;;;;1.63;1.33;;;;;;;;;;5001842;28;20045;-65
2022/04/12 00:06:29;;;;;;;2.17;1.88;;;;;;;;;;5005471;28;20156;-62
2022/04/12 00:08:55;;;;;;;5.85;2.13;;;;;;;;;;5003575;28;20037;-62
2022/04/12 00:11:21;;;;;;;1.45;1.33;;;;;;;;;;5005994;28;20475;-62
2022/04/12 00:13:47;;;;;;;6.10;1.48;;;;;;;;;;5007336;28;20042;-64
2022/04/12 00:16:13;;;;;;;2.10;1.60;;;;;;;;;;5008971;28;20487;-64
2022/04/12 00:21:24;;;;;;;1.77;0.80;;;8.20;95.30;;;;;;5004924;28;20682;-62
2022/04/12 00:23:50;;;;;;;1.92;1.33;;;;;;;;;;5006330;28;20037;-62
2022/04/12 00:26:16;;;;;;;1.65;1.50;;;;;;;;;;5006651;28;20041;-63
2022/04/12 00:28:42;;;;;;;2.78;2.45;;;;;;;;;;5009009;28;20049;-62
2022/04/12 00:31:08;;;;;;;2.90;1.75;;;;;;;;;;5005325;28;20038;-63
2022/04/12 00:33:34;;;;;;;2.03;1.27;;;;;;;;;;5006640;28;20570;-64
2022/04/12 00:36:02;;;;;;;0.85;0.82;;;;;;;;;;5009455;28;20033;-64
2022/04/12 00:38:33;;;;;;;1.02;0.85;;;8.40;97.60;;;;;;5006442;28;20033;-62
2022/04/12 00:40:59;;;;;;;1.95;0.95;;;;;;;;;;5004949;28;20033;-63
2022/04/12 00:43:27;;;;;;;2.47;1.17;;;;;;;;;;5007045;28;20026;-64
2022/04/12 00:45:53;;;;;;;5.28;1.23;;;;;;;;;;5009474;28;20036;-63
2022/04/12 00:48:19;;;;;;;1.08;0.95;;;;;;;;;;5005068;28;20026;-63
2022/04/12 00:50:46;;;;;;;1.02;0.90;;;;;;;;;;5003433;28;20026;-64
2022/04/12 00:53:12;;;;;;;4.85;1.27;;;7.90;94.70;;;;;;5004449;28;20037;-63
2022/04/12 00:55:39;;;;;;;9.68;1.27;;;;;;;;;;5001227;28;20583;-64
2022/04/12 00:58:06;;;;;;;0.73;0.73;;;8.00;99.90;;;;;;5008457;28;20072;-63
2022/04/12 01:00:34;;;;;;;3.38;1.92;;;;;;;;;;5004879;28;20136;-62
2022/04/12 01:03:00;;;;;;;4.22;1.42;;;;;;;;;;4996931;28;20102;-63
2022/04/12 01:05:26;;;;;;;4.70;0.95;;;;;;;;;;5002034;28;20034;-62
2022/04/12 01:07:53;;;;;;;1.08;1.08;;;7.50;92.80;;;;;;5005639;28;20037;-63
2022/04/12 01:10:19;;;;;;;1.75;1.02;;;;;;;;;;4997233;28;20565;-62
2022/04/12 01:12:47;;;;;;;0.97;0.70;;;;;;;;;;5010158;28;20152;-64
2022/04/12 01:15:13;;;;;;;;;;;;;;;;;;5006506;28;20269;-61
2022/04/12 01:17:40;;;;;;;1.50;1.23;;;;;;;;;;5001260;28;19957;-62
2022/04/12 01:20:06;;;;;;;1.23;0.75;;;;;;;;;;4993598;28;20029;-63
2022/04/12 01:22:33;;;;;;;2.20;1.20;;;7.80;91.10;;;;;;5003976;28;20541;-61
2022/04/12 01:24:59;;;;;;;1.85;1.35;;;;;;;;;;5000206;28;20423;-62
2022/04/12 01:27:27;;;;;;;1.52;0.98;;;;;;;;;;5006065;28;20025;-63
2022/04/12 01:29:53;;;;;;;3.00;1.40;;;;;;;;;;5003817;28;20030;-63
2022/04/12 01:32:19;;;;;;;1.40;1.30;;;;;;;;;;5002461;28;20093;-62
2022/04/12 01:34:44;;;;;;;3.72;1.10;;;8.10;99.90;;;;;;5006275;28;20021;-62
2022/04/12 01:37:10;;;;;;;1.98;1.83;;;;;;;;;;5007749;28;20029;-63
2022/04/12 01:39:36;;;;;;;2.45;1.42;;;7.80;93.80;;;;;;4998410;28;20030;-63
2022/04/12 01:42:02;;;;;;;1.35;1.10;;;;;;;;;;5005136;28;20038;-62
2022/04/12 01:44:27;;;;;;;2.55;1.33;;;7.70;97.60;;;;;;5005510;28;20037;-63
2022/04/12 01:46:53;;;;;;;0.93;0.82;;;;;;;;;;5005066;28;20052;-62
2022/04/12 01:49:19;;;;;;;5.25;1.20;;;;;;;;;;4990256;28;20115;-62
2022/04/12 01:51:45;;;;;;;2.63;1.05;;;;;;;;;;5020572;28;20045;-63
2022/04/12 01:54:12;;;;;;;1.38;0.95;;;;;;;;;;4999584;28;21359;-63
2022/04/12 01:56:37;;;;;;;4.97;1.25;;;8.00;94.50;;;;;;5004798;28;20410;-62
2022/04/12 01:59:04;;;;;;;1.88;1.15;;;;;;;;;;5021069;28;20030;-61
2022/04/12 02:01:30;;;;;;;1.35;1.10;;;;;;;;;;5000621;28;20038;-63
2022/04/12 02:03:56;;;;;;;4.63;1.45;;;;;;;;;;4992526;28;20054;-63
2022/04/12 02:06:22;;;;;;;2.72;1.05;;;;;;;;;;5006900;28;20028;-62
2022/04/12 02:08:48;;;;;;;4.07;1.55;;;;;;;;;;4997760;28;20030;-63
2022/04/12 02:11:14;;;;;;;1.52;0.73;;;7.80;99.90;;;;;;5017334;28;20529;-62
2022/04/12 02:13:40;;;;;;;1.52;1.23;;;;;;;;;;5005633;28;20081;-62
2022/04/12 02:16:06;;;;;;;2.00;0.82;;;;;;;;;;5021602;28;20028;-63
2022/04/12 02:18:32;;;;;;;1.70;1.40;;;;;;;;;;5008466;28;20026;-62
2022/04/12 02:20:58;;;;;;;1.40;0.82;;;;;;;;;;5001550;28;20030;-62
2022/04/12 02:23:24;;;;;;;5.05;2.22;;;;;;;;;;5000278;28;20450;-61
2022/04/12 02:25:50;;;;;;;2.75;1.48;;;;;;;;;;5001640;28;20030;-61
2022/04/12 02:28:19;;;;;;;1.95;0.90;;;;;;;;;;5017137;28;20030;-62
2022/04/12 02:30:45;;;;;;;1.33;0.95;;;;;;;;;;5019735;28;20587;-62
2022/04/12 02:33:11;;;;;;;6.07;1.15;;;;;;;;;;5003707;28;20116;-62
2022/04/12 02:35:37;;;;;;;9.20;2.05;;;;;;;;;;5005493;28;20603;-62
2022/04/12 02:38:03;;;;;;;3.47;2.13;;;;;;;;;;5003864;28;20498;-62
2022/04/12 02:40:29;;;;;;;1.65;1.55;;;;;;;;;;4997188;28;20407;-63
2022/04/12 02:42:56;;;;;;;1.58;1.10;;;;;;;;;;5006622;28;20317;-63
2022/04/12 02:45:22;;;;;;;1.48;1.30;;;;;;;;;;5005852;28;20088;-62
2022/04/12 02:47:48;;;;;;;2.45;1.17;;;;;;;;;;5008895;28;20087;-62
2022/04/12 02:50:14;;;;;;;2.08;1.30;;;;;;;;;;5003188;28;20084;-63
2022/04/12 02:52:39;;;;;;;3.83;1.60;;;8.10;92.60;;;;;;5004872;28;20022;-62
2022/04/12 02:55:06;;;;;;;1.92;1.33;;;;;;;;;;4999514;28;20135;-62
2022/04/12 02:57:32;;;;;;;1.20;1.10;;;8.10;94.90;;;;;;4996056;28;20025;-62
2022/04/12 02:59:58;;;;;;;3.20;1.77;;;;;;;;;;5001808;28;20087;-63
2022/04/12 03:02:23;;;;;;;1.48;1.13;;;8.10;99.90;;;;;;5000920;28;20088;-62
2022/04/12 03:04:49;;;;;;;2.03;1.38;;;;;;;;;;5004407;28;20461;-63
2022/04/12 03:07:15;;;;;;;1.73;1.17;;;;;;;;;;5005676;28;20053;-63
2022/04/12 03:09:41;;;;;;;2.20;1.15;;;;;;;;;;5006402;28;20030;-62
2022/04/12 03:12:08;;;;;;;2.45;1.30;;;;;;;;;;5002358;28;20029;-63
2022/04/12 03:14:34;;;;;;;8.10;1.30;;;;;;;;;;5003165;28;20060;-63
2022/04/12 03:17:00;;;;;;;2.90;0.98;;;;;;;;;;5018387;28;20061;-62
2022/04/12 03:19:26;;;;;;;2.80;1.77;;;;;;;;;;5001841;28;20096;-62
2022/04/12 03:21:52;;;;;;;0.85;0.85;;;;;;;;;;5004244;28;20018;-63
2022/04/12 03:24:18;;;;;;;1.20;0.88;;;7.90;99.90;;;;;;4997172;28;20510;-62
2022/04/12 03:26:43;;;;;;;1.58;1.05;;;;;;;;;;4997455;28;20030;-63
2022/04/12 03:29:09;;;;;;;1.52;1.35;;;;;;;;;;4996697;28;20113;-62
2022/04/12 03:31:36;;;;;;;1.35;1.20;;;;;;;;;;5000564;28;20492;-63
2022/04/12 03:34:01;;;;;;;2.97;1.33;;;8.40;94.00;;;;;;5005272;28;20120;-63
2022/04/12 03:36:27;;;;;;;1.52;1.00;;;;;;;;;;5005790;28;20021;-63
2022/04/12 03:38:53;;;;;;;1.63;0.85;;;;;;;;;;5002817;28;20042;-63
2022/04/12 03:41:23;;;;;;;1.70;0.93;;;8.00;92.10;;;;;;5003125;28;20163;-62
2022/04/12 03:43:52;;;;;;;14.93;3.95;;;;;;;;;;5002851;28;20041;-64
2022/04/12 03:46:19;;;;;;;7.65;2.38;;;;;;;;;;5006836;28;20076;-63
2022/04/12 03:48:45;;;;;;;6.45;2.00;;;;;;;;;;5005387;28;20064;-62
2022/04/12 03:51:12;;;;;;;6.70;1.20;;;;;;;;;;5007071;28;20036;-64
2022/04/12 03:53:38;;;;;;;0.80;0.80;;;8.10;98.70;;;;;;5003834;28;20057;-62
2022/04/12 03:56:07;;;;;;;6.43;1.77;;;8.00;92.00;;;;;;5005540;28;20883;-62
2022/04/12 03:58:37;;;;;;;10.75;1.27;;;;;;;;;;4994137;28;20439;-64
2022/04/12 04:01:03;;;;;;;2.70;1.63;;;;;;;;;;5002965;28;20022;-62
2022/04/12 04:03:29;;;;;;;3.25;1.48;;;;;;;;;;4995752;28;20030;-62
2022/04/12 04:05:55;;;;;;;5.95;2.03;;;;;;;;;;5006574;28;20161;-63
2022/04/12 04:08:21;;;;;;;1.92;1.33;;;;;;;;;;5005846;28;20034;-62
2022/04/12 04:10:47;;;;;;;1.35;0.90;;;;;;;;;;5020940;28;20030;-63
2022/04/12 04:13:14;;;;;;;1.25;1.10;;;;;;;;;;5008111;28;20038;-62
2022/04/12 04:15:41;;;;;;;4.15;1.35;;;;;;;;;;5001464;28;20038;-62
2022/04/12 04:18:07;;;;;;;1.90;1.77;;;;;;;;;;4997809;28;20045;-62
2022/04/12 04:20:33;;;;;;;6.63;1.95;;;;;;;;;;5004305;28;20055;-62
2022/04/12 04:22:59;;;;;;;1.92;1.73;;;;;;;;;;5005251;28;20515;-62
2022/04/12 04:25:25;;;;;;;4.38;2.05;;;;;;;;;;4992627;28;20042;-62
2022/04/12 04:27:52;;;;;;;4.53;1.98;;;;;;;;;;5009706;28;20076;-65
2022/04/12 04:30:19;;;;;;;5.72;1.33;;;;;;;;;;5003810;28;20068;-62
2022/04/12 04:32:45;;;;;;;2.70;1.45;;;;;;;;;;5004443;28;20125;-63
2022/04/12 04:35:11;;;;;;;4.20;2.33;;;;;;;;;;5008009;28;20112;-63
2022/04/12 04:37:47;;;;;;;6.07;1.73;;;7.80;92.50;;;;;;5005214;28;20831;-63
2022/04/12 04:40:17;;;;;;;3.65;1.92;;;;;;;;;;5018732;28;20487;-63
2022/04/12 04:42:44;;;;;;;2.15;1.45;;;;;;;;;;5011733;28;20030;-62
2022/04/12 04:45:11;;;;;;;4.43;2.13;;;;;;;;;;4995657;28;20077;-62
2022/04/12 04:47:48;;;;;;;15.52;3.28;;;;;;;;;;4997298;28;20832;-64
2022/04/12 04:50:14;;;;;;;3.70;1.95;;;;;;;;;;5004583;28;20045;-63
2022/04/12 04:52:40;;;;;;;2.35;1.70;;;;;;;;;;5004668;28;20030;-63
2022/04/12 04:55:06;;;;;;;2.53;1.45;;;;;;;;;;4993004;28;20054;-63
2022/04/12 04:57:31;;;;;;;4.47;2.20;;;7.90;95.80;;;;;;5004701;28;20018;-62
2022/04/12 04:59:57;;;;;;;3.15;1.23;;;;;;;;;;5003582;28;20848;-62
2022/04/12 05:02:23;;;;;;;2.50;1.27;;;;;;;;;;5004081;28;20041;-63
2022/04/12 05:04:49;;;;;;;3.78;1.27;;;;;;;;;;5006683;28;20648;-62
2022/04/12 05:07:24;;;;;;;1.17;0.80;;;;;;;;;;5007417;28;20060;-62
2022/04/12 05:09:51;;;;;;;1.05;0.75;;;;;;;;;;5004006;28;20030;-63
2022/04/12 05:12:17;;;;;;;;;;;;;;;;;;5007675;28;20557;-63
2022/04/12 05:14:43;;;;;;;4.07;2.80;;;;;;;;;;4998996;28;19956;-63
2022/04/12 05:17:09;;;;;;;13.38;2.63;;;;;;;;;;4992490;28;20040;-62
2022/04/12 05:19:35;;;;;;;5.80;2.55;;;;;;;;;;5002771;28;20034;-62
2022/04/12 05:22:01;;;;;;;3.28;2.58;;;;;;;;;;5004633;28;20103;-63
2022/04/12 05:24:27;;;;;;;5.68;2.10;;;;;;;;;;5000260;28;20112;-63
2022/04/12 05:26:53;;;;;;;3.05;1.98;;;;;;;;;;5004546;28;20038;-63
2022/04/12 05:29:19;;;;;;;4.88;1.23;;;;;;;;;;5003061;28;20085;-62
2022/04/12 05:31:45;;;;;;;3.58;1.88;;;;;;;;;;5000720;28;20030;-64
2022/04/12 05:34:11;;;;;;;3.22;1.45;;;;;;;;;;5004316;28;20037;-62
2022/04/12 05:36:37;;;;;;;2.25;1.70;;;;;;;;;;5005258;28;20025;-64
2022/04/12 05:39:03;;;;;;;4.57;2.05;;;;;;;;;;5003431;28;20101;-63
2022/04/12 05:41:29;;;;;;;4.93;2.42;;;;;;;;;;5001526;28;20029;-63
2022/04/12 05:43:55;;;;;;;5.95;2.47;;;;;;;;;;5002073;28;20033;-62
2022/04/12 05:46:21;;;;;;;6.30;3.35;;;;;;;;;;5003246;28;20058;-63
2022/04/12 05:48:47;;;;;;;4.55;2.63;;;;;;;;;;4999843;28;20026;-62
2022/04/12 05:51:13;;;;;;;3.42;2.45;;;;;;;;;;5003667;28;20618;-65
2022/04/12 05:53:39;;;;;;;2.45;2.08;;;;;;;;;;5004431;28;20040;-66
2022/04/12 05:56:05;;;;;;;3.25;1.98;;;;;;;;;;5002948;28;20069;-67
2022/04/12 05:58:35;;;;;;;3.47;1.70;;;;;;;;;;5003252;28;20583;-65
2022/04/12 06:01:01;;;;;;;1.73;1.38;;;;;;;;;;5003172;28;20030;-66
2022/04/12 06:03:27;;;;;;;7.63;1.50;;;;;;;;;;5003670;28;20034;-66
2022/04/12 06:05:53;;;;;;;4.72;2.20;;;;;;;;;;5004504;28;20032;-65
2022/04/12 06:08:19;;;;;;;3.88;2.53;;;;;;;;;;5000278;28;20081;-66
2022/04/12 06:10:45;;;;;;;2.85;1.90;;;;;;;;;;4998936;28;20030;-66
2022/04/12 06:13:11;;;;;;;4.43;2.90;;;;;;;;;;4996978;28;20670;-66
2022/04/12 06:15:37;;;;;;;5.00;3.35;;;;;;;;;;5021880;28;20018;-66
2022/04/12 06:18:03;;;;;;;2.92;2.17;;;;;;;;;;5002061;28;20037;-65
2022/04/12 06:20:29;;;;;;;5.25;2.85;;;;;;;;;;5003223;28;20651;-65
2022/04/12 06:22:55;;;;;;;6.72;2.53;;;;;;;;;;5002392;28;20038;-65
2022/04/12 06:25:21;;;;;;;2.63;1.92;;;;;;;;;;5002373;28;20034;-68
2022/04/12 06:27:51;;;;;;;2.95;2.35;;;9.30;91.70;;;;;;5023064;28;20053;-67
2022/04/12 06:30:19;;;;;;;5.85;1.83;;;;;;;;;;4994403;28;20569;-70
2022/04/12 06:32:45;;;;;;;3.75;2.10;;;;;;;;;;4992783;28;20531;-68
2022/04/12 06:35:12;;;;;;;4.45;2.13;;;;;;;;;;5008671;28;20038;-69
2022/04/12 06:37:39;;;;;;;2.83;1.85;;;;;;;;;;4991878;28;20061;-69
2022/04/12 06:40:06;;;;;;;;;;;;;;;;;;4991130;28;20034;-69
2022/04/12 06:42:32;;;;;;;2.85;2.17;;;;;;;;;;5004677;28;19912;-66
2022/04/12 06:44:58;;;;;;;3.65;1.67;;;;;;;;;;4995819;28;20113;-67
2022/04/12 06:47:24;;;;;;;7.03;1.98;;;;;;;;;;4996791;28;20034;-63
2022/04/12 06:49:51;;;;;;;2.38;1.77;;;;;;;;;;5004264;28;20380;-67
2022/04/12 06:52:18;;;;;;;2.88;1.95;;;;;;;;;;4989896;28;20466;-67
2022/04/12 06:54:44;;;;;;;4.65;3.60;;;10.90;99.90;;;;;;4992010;28;20462;-67
2022/04/12 06:57:10;;;;;;;3.90;3.33;;;;;;;;;;4992983;28;20084;-68
2022/04/12 06:59:36;;;;;;;5.53;3.25;;;;;;;;;;4995059;28;20042;-68
2022/04/12 07:02:02;;;;;;;3.97;1.55;;;;;;;;;;4993106;28;20087;-69
2022/04/12 07:04:29;;;;;;;6.57;2.53;;;;;;;;;;4988668;28;20647;-67
2022/04/12 07:06:56;;;;;;;3.55;1.23;;;;;;;;;;4991661;28;20511;-67
2022/04/12 07:09:23;;;;;;;5.65;2.00;;;;;;;;;;4993929;28;20026;-67
2022/04/12 07:11:49;;;;;;;11.87;2.43;;;;;;;;;;4993374;28;20523;-68
2022/04/12 07:14:15;;;;;;;3.53;2.75;;;;;;;;;;4995193;28;20096;-67
2022/04/12 07:16:41;;;;;;;2.80;1.92;;;;;;;;;;4990458;28;20031;-67
2022/04/12 07:19:08;;;;;;;5.53;2.78;;;;;;;;;;4990498;28;20058;-68
2022/04/12 07:21:33;;;;;;;14.02;2.78;;;13.70;88.00;;;;;;4993000;28;20027;-68
2022/04/12 07:23:59;;;;;;;8.15;2.50;;;;;;;;;;5001672;28;20096;-68
2022/04/12 07:26:26;;;;;;;9.07;1.50;;;;;;;;;;4999608;28;20030;-69
2022/04/12 07:28:52;;;;;;;6.47;2.07;;;14.40;93.30;;;;;;4992726;28;20475;-68
2022/04/12 07:31:18;;;;;;;5.75;2.15;;;;;;;;;;4989873;28;20273;-68
2022/04/12 07:33:44;;;;;;;2.90;2.00;;;14.30;93.50;;;;;;4992994;28;20026;-69
2022/04/12 07:36:09;;;;;;;12.90;2.30;;;14.60;90.50;;;;;;5032127;28;20032;-68
2022/04/12 07:38:35;;;;;;;2.80;1.25;;;;;;;;;;4998145;28;20038;-67
2022/04/12 07:41:01;;;;;;;3.15;1.45;;;;;;;;;;4994610;28;20022;-67
2022/04/12 07:43:27;;;;;;;4.60;2.28;;;;;;;;;;4989256;28;20058;-67
2022/04/12 07:45:53;;;;;;;4.72;2.35;;;;;;;;;;4991730;28;20042;-68
2022/04/12 07:48:19;;;;;;;5.03;4.18;;;;;;;;;;4993776;28;20038;-69
2022/04/12 07:50:45;;;;;;;8.20;3.58;;;;;;;;;;4993051;28;20031;-69
2022/04/12 07:53:11;;;;;;;7.50;3.33;;;;;;;;;;4992352;28;20053;-70
2022/04/12 07:55:37;;;;;;;9.70;3.45;;;;;;;;;;4990394;28;20478;-68
2022/04/12 07:58:03;;;;;;;7.18;3.63;;;;;;;;;;4990081;28;20030;-69
2022/04/12 08:00:29;;;;;;;5.70;2.25;;;;;;;;;;4992452;28;20515;-69
2022/04/12 08:02:55;;;;;;;3.90;2.70;;;;;;;;;;4994377;28;20492;-69
2022/04/12 08:05:21;;;;;;;8.77;2.58;;;;;;;;;;4994300;28;20036;-69
2022/04/12 08:07:47;;;;;;;4.60;2.78;;;;;;;;;;4990618;28;20100;-68
2022/04/12 08:10:17;;;;;;;4.15;2.67;;;15.80;73.00;;;;;;4997760;28;20030;-68
2022/04/12 08:12:43;;;;;;;5.28;2.70;;;;;;;;;;4992435;28;20101;-69
2022/04/12 08:15:13;;;;;;;3.72;2.40;;;;;;;;;;5000800;28;20033;-66
2022/04/12 08:17:40;;;;;;;18.30;3.45;;;;;;;;;;4998620;28;20037;-66
2022/04/12 08:20:07;;;;;;;13.27;2.50;;;;;;;;;;5001695;28;20036;-66
2022/04/12 08:22:33;;;;;;;4.30;2.00;;;;;;;;;;5001399;28;20521;-65
2022/04/12 08:24:59;;;;;;;6.45;1.98;;;;;;;;;;4995405;28;20117;-67
2022/04/12 08:27:26;;;;;;;6.25;2.35;;;;;;;;;;4992797;28;20062;-63
2022/04/12 08:29:52;;;;;;;15.53;2.80;;;19.20;81.30;;;;;;4991864;28;20030;-67
2022/04/12 08:32:17;;;;;;;5.35;2.03;;;19.90;68.20;;;;;;4997547;28;20649;-71
2022/04/12 08:34:44;;;;;;;11.98;1.75;;;;;;;;;;4994445;28;20068;-70
2022/04/12 08:37:10;;;;;;;5.70;1.70;;;;;;;;;;4994454;28;20057;-67
2022/04/12 08:39:36;;;;;;;4.32;1.35;;;;;;;;;;4996941;28;20054;-67
2022/04/12 08:42:03;;;;;;;5.13;1.10;;;;;;;;;;5029312;28;20029;-67
2022/04/12 08:44:30;;;;;;;4.13;1.23;;;;;;;;;;4995409;28;20478;-68
2022/04/12 08:46:56;;;;;;;1.67;1.05;;;;;;;;;;4997304;28;20058;-70
2022/04/12 08:49:26;;;;;;;2.00;1.35;;;;;;;;;;4993530;28;20036;-69
2022/04/12 08:51:52;;;;;;;8.77;1.50;;;20.50;71.90;;;;;;5006853;28;20026;-71
2022/04/12 08:54:18;;;;;;;6.70;1.55;;;;;;;;;;4995740;28;20026;-71
2022/04/12 08:56:45;;;;;;;2.80;0.68;;;;;;;;;;4997423;28;20034;-70
2022/04/12 08:59:11;;;;;;;2.45;0.70;;;21.00;66.90;;;;;;4995243;28;20037;-70
2022/04/12 09:01:38;;;;;;;1.55;0.70;;;;;;;;;;4994404;28;20029;-69
2022/04/12 09:04:04;;;;;;;5.50;1.10;;;;;;;;;;4993142;28;20058;-69
2022/04/12 09:06:30;;;;;;;7.55;2.65;;;;;;;;;;4994977;28;20108;-67
2022/04/12 09:09:06;;;;;;;7.38;1.52;;;;;;;;;;4995727;28;20042;-70
2022/04/12 09:11:34;;;;;;;3.13;0.90;;;;;;;;;;4995112;28;20031;-70
2022/04/12 09:14:00;;;;;;;3.63;0.70;;;;;;;;;;4995252;28;20316;-71
2022/04/12 09:16:28;;;;;;;8.60;1.20;;;;;;;;;;4990810;28;20064;-69
2022/04/12 09:18:55;;;;;;;2.78;1.00;;;;;;;;;;4994578;28;20026;-70
2022/04/12 09:21:22;;;;;;;7.37;1.93;;;;;;;;;;4994534;28;20111;-69
2022/04/12 09:23:52;;;;;;;2.97;0.90;;;;;;;;;;4995091;28;20038;-69
2022/04/12 09:26:24;;;;;;;0.80;0.68;;;;;;;;;;4995381;28;20553;-68
2022/04/12 09:28:51;;;;;;;3.42;1.63;;;;;;;;;;4994159;28;20026;-69
2022/04/12 09:31:18;;;;;;;1.67;1.05;;;;;;;;;;5006513;28;20586;-69
2022/04/12 09:33:45;;;;;;;2.35;0.82;;;;;;;;;;4995270;28;20022;-72
2022/04/12 09:36:11;;;;;;;5.28;0.60;;;;;;;;;;4995480;28;20041;-69
2022/04/12 09:38:39;;;;;;;8.93;0.73;;;19.30;50.40;;;;;;4996775;28;20114;-69
2022/04/12 09:41:24;;;;;;;3.75;0.60;;;;;;;;;;5028268;28;20470;-69
2022/04/12 09:43:51;;;;;;;3.45;0.82;;;;;;;;;;5024313;28;20041;-68
2022/04/12 09:46:17;;;;;;;2.83;0.60;;;;;;;;;;4991383;28;20042;-69
2022/04/12 09:48:50;;;;;;;2.40;0.50;;;;;;;;;;4993900;28;20022;-70
2022/04/12 09:51:17;;;;;;;0.98;0.63;;;;;;;;;;5025996;28;20083;-69
2022/04/12 09:53:46;;;;;;;1.03;0.60;;;19.30;45.20;;;;;;4995546;28;20091;-69
2022/04/12 09:56:16;;;;;;;5.60;1.70;;;;;;;;;;4994044;28;20128;-68
2022/04/12 09:58:44;;;;;;;3.47;0.73;;;;;;;;;;4992122;28;20097;-68
2022/04/12 10:01:10;;;;;;;4.20;0.50;;;;;;;;;;4991528;28;20399;-69
2022/04/12 10:03:37;;;;;;;2.90;1.05;;;19.40;42.10;;;;;;4995600;28;20038;-68
2022/04/12 10:06:05;;;;;;;2.10;0.40;;;;;;;;;;4994272;28;20050;-68
2022/04/12 10:08:33;;;;;;;0.30;0.20;;;19.60;46.50;;;;;;5000035;28;20633;-69
2022/04/12 10:10:59;;;;;;;4.40;1.15;;;;;;;;;;5005581;28;20025;-68
2022/04/12 10:13:28;;;;;;;2.30;1.08;;;19.60;42.10;;;;;;4991292;28;20034;-68
2022/04/12 10:15:55;;;;;;;4.75;1.75;;;;;;;;;;5005273;28;20018;-68
2022/04/12 10:18:21;;;;;;;4.43;0.40;;;;;;;;;;4993919;28;20073;-68
2022/04/12 10:20:47;;;;;;;1.30;0.60;;;;;;;;;;4996131;28;20065;-67
2022/04/12 10:23:17;;;;;;;0.98;0.63;;;;;;;;;;4993840;28;20044;-67
2022/04/12 10:25:44;;;;;;;2.83;0.60;;;;;;;;;;4991722;28;20030;-67
2022/04/12 10:28:10;;;;;;;1.50;0.73;;;;;;;;;;4992007;28;20098;-67
2022/04/12 10:30:36;;;;;;;3.35;1.30;;;;;;;;;;4993958;28;20054;-68
2022/04/12 10:33:04;;;;;;;8.27;0.63;;;20.00;61.60;;;;;;5002466;28;20038;-68
2022/04/12 10:35:31;;;;;;;1.83;1.38;;;;;;;;;;5001884;28;20029;-67
2022/04/12 10:37:57;;;;;;;5.43;0.32;;;;;;;;;;5004985;28;20034;-67
2022/04/12 10:40:26;;;;;;;3.85;0.50;;;20.30;46.20;;;;;;5024816;28;20501;-68
2022/04/12 10:42:53;;;;;;;7.93;1.58;;;;;;;;;;5005149;28;20117;-68
2022/04/12 10:45:19;;;;;;;;;;;;;;;;;;5006547;28;20121;-68
2022/04/12 10:47:45;;;;;;;2.40;0.65;;;;;;;;;;4999788;28;20806;-69
2022/04/12 10:50:13;;;;;;;1.50;0.80;;;21.30;45.20;;;;;;4993030;28;20517;-68
2022/04/12 10:52:42;;;;;;;5.10;1.02;;;;;;;;;;4993074;28;20823;-68
2022/04/12 10:55:10;;;;;;;2.97;1.00;;;;;;;;;;4991945;28;20061;-68
2022/04/12 10:57:36;;;;;;;15.50;2.38;;;;;;;;;;5033073;28;20026;-67
2022/04/12 11:00:16;;;;;;;0.90;0.50;;;22.40;44.30;;;;;;5006203;28;20510;-66
2022/04/12 11:02:43;;;;;;;5.63;0.50;;;;;;;;;;5004217;28;20033;-67
2022/04/12 11:05:29;;;;;;;2.92;0.75;;;;;;;;;;5004445;28;20048;-67
2022/04/12 11:07:55;;;;;;;0.85;0.45;;;21.70;56.70;;;;;;4988989;28;20049;-67
2022/04/12 11:10:22;;;;;;;4.88;0.55;;;;;;;;;;5006371;28;20045;-68
2022/04/12 11:12:48;;;;;;;1.13;0.40;;;;;;;;;;5006829;28;20022;-67
2022/04/12 11:15:22;;;;;;;2.85;0.73;;;;;;;;;;4993237;28;20042;-69
2022/04/12 11:17:48;;;;;;;2.33;0.77;;;;;;;;;;4996006;28;20110;-67
2022/04/12 11:20:23;;;;;;;1.88;1.15;;;;;;;;;;5003313;28;20124;-68
2022/04/12 11:22:56;;;;;;;4.30;0.90;;;;;;;;;;4993860;28;20026;-68
2022/04/12 11:25:26;;;;;;;1.10;0.50;;;;;;;;;;4988811;28;20042;-68
2022/04/12 11:27:58;;;;;;;5.57;0.82;;;;;;;;;;5003352;28;20062;-67
2022/04/12 11:30:28;;;;;;;2.47;0.82;;;;;;;;;;4993378;28;20062;-64
2022/04/12 11:32:57;;;;;;;6.50;2.42;;;;;;;;;;4992863;28;20031;-68
2022/04/12 11:35:23;;;;;;;1.05;0.45;;;;;;;;;;4992711;28;20109;-67
2022/04/12 11:37:50;;;;;;;1.93;0.80;;;;;;;;;;4991269;28;20057;-65
2022/04/12 11:40:16;;;;;;;9.73;0.90;;;;;;;;;;4990228;28;20653;-67
2022/04/12 11:42:43;;;;;;;5.32;1.48;;;;;;;;;;4993639;28;20026;-70
2022/04/12 11:45:10;;;;;;;1.35;0.63;;;;;;;;;;4993134;28;20511;-68
2022/04/12 11:47:39;;;;;;;2.05;0.50;;;;;;;;;;5001032;28;20030;-69
2022/04/12 11:50:14;;;;;;;6.38;0.90;;;;;;;;;;5002193;28;20084;-65
2022/04/12 11:52:41;;;;;;;3.10;0.77;;;;;;;;;;4990247;28;20034;-65
2022/04/12 11:55:07;;;;;;;4.35;0.98;;;;;;;;;;4990383;28;20101;-67
2022/04/12 11:57:33;;;;;;;3.47;0.70;;;;;;;;;;5009387;28;20487;-65
2022/04/12 12:00:00;;;;;;;3.03;0.93;;;;;;;;;;4992154;28;20038;-66
2022/04/12 12:02:27;;;;;;;3.95;0.50;;;;;;;;;;4995161;28;20026;-66
2022/04/12 12:04:53;;;;;;;;;;;;;;;;;;4992606;28;20598;-66
2022/04/12 12:07:19;;;;;;;1.85;0.93;;;;;;;;;;4995710;28;19917;-67
2022/04/12 12:09:54;;;;;;;3.90;0.80;;;;;;;;;;4997050;28;20026;-66
2022/04/12 12:12:21;;;;;;;3.88;1.38;;;;;;;;;;4997641;28;20143;-66
2022/04/12 12:14:47;;;;;;;12.95;1.20;;;;;;;;;;4996424;28;20027;-65
2022/04/12 12:17:20;;;;;;;1.55;0.52;;;20.90;46.30;;;;;;4996323;28;20030;-65
2022/04/12 12:19:46;;;;;;;5.53;0.73;;;;;;;;;;4993751;28;20649;-66
2022/04/12 12:22:14;;;;;;;2.63;1.13;;;;;;;;;;4993862;28;20058;-66
2022/04/12 12:24:49;;;;;;;7.28;1.15;;;;;;;;;;4996181;28;20448;-67
2022/04/12 12:27:15;;;;;;;2.35;1.10;;;;;;;;;;4997942;28;20026;-66
2022/04/12 12:29:43;;;;;;;5.50;1.35;;;;;;;;;;4995584;28;20460;-66
2022/04/12 12:32:16;;;;;;;1.33;0.55;;;;;;;;;;4996578;28;20062;-67
2022/04/12 12:34:45;;;;;;;1.13;0.80;;;;;;;;;;4993737;28;20042;-67
2022/04/12 12:37:11;;;;;;;2.25;0.77;;;21.60;53.60;;;;;;4993974;28;20023;-66
2022/04/12 12:39:40;;;;;;;9.45;0.82;;;;;;;;;;4995797;28;20080;-65
2022/04/12 12:42:07;;;;;;;1.67;0.40;;;;;;;;;;4997035;28;20061;-65
2022/04/12 12:44:37;;;;;;;1.48;0.85;;;;;;;;;;4996032;28;20492;-66
2022/04/12 12:47:04;;;;;;;2.92;1.10;;;;;;;;;;4997669;28;20605;-66
2022/04/12 12:49:40;;;;;;;4.13;0.75;;;;;;;;;;4991439;28;20499;-66
2022/04/12 12:52:10;;;;;;;2.03;0.70;;;;;;;;;;4993057;28;20039;-66
2022/04/12 12:54:37;;;;;;;8.15;1.35;;;;;;;;;;4996958;28;20041;-66
2022/04/12 12:57:05;;;;;;;3.65;1.02;;;;;;;;;;5001877;28;20034;-65
2022/04/12 12:59:32;;;;;;;6.82;0.80;;;;;;;;;;5001909;28;20038;-66
2022/04/12 13:01:59;;;;;;;3.15;0.57;;;;;;;;;;5006505;28;20445;-66
2022/04/12 13:04:25;;;;;;;4.50;0.75;;;;;;;;;;4990771;28;20056;-65
2022/04/12 13:07:00;;;;;;;5.38;0.82;;;;;;;;;;5010275;28;20144;-66
2022/04/12 13:09:26;;;;;;;3.03;0.52;;;;;;;;;;5022508;28;20033;-65
2022/04/12 13:11:52;;;;;;;1.80;0.77;;;;;;;;;;4998596;28;20432;-66
2022/04/12 13:14:18;;;;;;;6.18;0.82;;;;;;;;;;4997075;28;20065;-64
2022/04/12 13:16:44;;;;;;;3.50;0.82;;;;;;;;;;4993016;28;20084;-64
2022/04/12 13:19:10;;;;;;;1.23;0.60;;;;;;;;;;5006783;28;20038;-66
2022/04/12 13:21:36;;;;;;;3.38;0.70;;;;;;;;;;5012403;28;20054;-65
2022/04/12 13:24:02;;;;;;;1.95;0.70;;;20.40;62.60;;;;;;4996220;28;20515;-65
2022/04/12 13:26:28;;;;;;;2.92;0.80;;;;;;;;;;4994748;28;20046;-65
2022/04/12 13:28:54;;;;;;;2.85;0.70;;;;;;;;;;4994766;28;20399;-65
2022/04/12 13:31:20;;;;;;;1.45;0.60;;;;;;;;;;4991285;28;20139;-65
2022/04/12 13:33:46;;;;;;;6.68;1.35;;;;;;;;;;4993990;28;20057;-65
2022/04/12 13:36:12;;;;;;;10.00;0.85;;;;;;;;;;4995170;28;20109;-65
2022/04/12 13:38:37;;;;;;;1.70;1.08;;;20.30;55.00;;;;;;4994699;28;20026;-68
2022/04/12 13:41:03;;;;;;;3.72;0.70;;;;;;;;;;4996609;28;20029;-65
2022/04/12 13:43:29;;;;;;;2.20;0.50;;;;;;;;;;4990288;28;20157;-65
2022/04/12 13:45:55;;;;;;;1.17;0.85;;;;;;;;;;4994701;28;20483;-65
2022/04/12 13:48:21;;;;;;;0.85;0.52;;;;;;;;;;5027004;28;20426;-66
2022/04/12 13:50:47;;;;;;;1.70;1.13;;;20.10;55.00;;;;;;4994484;28;20033;-65
2022/04/12 13:53:13;;;;;;;3.72;0.82;;;;;;;;;;4994346;28;20105;-66
2022/04/12 13:55:39;;;;;;;1.25;0.63;;;;;;;;;;4990775;28;20050;-66
2022/04/12 13:58:05;;;;;;;6.90;1.45;;;;;;;;;;4997610;28;20030;-66
2022/04/12 14:00:31;;;;;;;0.82;0.55;;;;;;;;;;5005262;28;20040;-66
2022/04/12 14:02:57;;;;;;;1.42;0.63;;;;;;;;;;4997704;28;20030;-65
2022/04/12 14:05:24;;;;;;;4.03;1.02;;;;;;;;;;5024912;28;20142;-65
2022/04/12 14:07:50;;;;;;;0.40;0.40;;;;;;;;;;4996541;28;20080;-66
2022/04/12 14:10:16;;;;;;;5.40;0.75;;;;;;;;;;4990924;28;20069;-66
2022/04/12 14:12:42;;;;;;;2.42;1.98;;;;;;;;;;4993994;28;20054;-67
2022/04/12 14:15:08;;;;;;;1.67;0.70;;;;;;;;;;4993135;28;20078;-68
2022/04/12 14:17:34;;;;;;;2.55;0.70;;;;;;;;;;4995265;28;20023;-69
2022/04/12 14:20:00;;;;;;;22.45;1.77;;;;;;;;;;4994039;28;20037;-68
2022/04/12 14:22:26;;;;;;;4.10;1.10;;;;;;;;;;4990242;28;20026;-68
2022/04/12 14:24:52;;;;;;;11.75;1.23;;;;;;;;;;5007939;28;20515;-64
2022/04/12 14:27:19;;;;;;;1.67;1.00;;;;;;;;;;4993826;28;20041;-68
2022/04/12 14:29:45;;;;;;;3.73;1.20;;;;;;;;;;4993800;28;20503;-68